Time;durP1;ratioP1;P1;durP2;ratioP2;P2;SDS_P1;SDS_P2;PMS_P1;PMS_P2;Temp;Humidity;BMP_temperature;BMP_pressure;BME280_temperature;BME280_humidity;BME280_pressure;Samples;Min_cycle;Max_cycle;Signal;HPM_P1;HPM_P2
2022/08/11 00:01:09;;;;;;;;;;;23.80;48.90;;;;;;5099883;28;19924;-65
2022/08/11 00:03:36;;;;;;;;;;;23.80;48.90;;;;;;5099710;28;20335;-65
2022/08/11 00:06:03;;;;;;;;;;;23.80;49.00;;;;;;5080674;28;19927;-66
2022/08/11 00:08:30;;;;;;;;;;;23.80;49.00;;;;;;5077372;28;20009;-65
2022/08/11 00:10:58;;;;;;;;;;;23.80;49.00;;;;;;5080415;28;19920;-65
2022/08/11 00:13:31;;;;;;;;;;;23.80;49.00;;;;;;5101729;28;20391;-65
2022/08/11 00:15:59;;;;;;;;;;;23.80;49.00;;;;;;5081460;28;19927;-65
2022/08/11 00:18:26;;;;;;;;;;;23.80;49.00;;;;;;5078497;28;20410;-65
2022/08/11 00:20:52;;;;;;;;;;;23.80;49.00;;;;;;5076975;28;19954;-65
2022/08/11 00:23:20;;;;;;;;;;;23.80;49.10;;;;;;5077374;28;19920;-65
2022/08/11 00:25:47;;;;;;;;;;;23.80;49.10;;;;;;5094979;28;20353;-65
2022/08/11 00:28:23;;;;;;;;;;;23.80;49.10;;;;;;5084181;28;20043;-65
2022/08/11 00:30:50;;;;;;;;;;;23.80;49.10;;;;;;5079129;28;19924;-65
2022/08/11 00:33:18;;;;;;;;;;;23.80;49.10;;;;;;5098850;28;19951;-65
2022/08/11 00:35:44;;;;;;;;;;;23.80;49.10;;;;;;5095522;28;20319;-64
2022/08/11 00:38:11;;;;;;;;;;;23.80;49.10;;;;;;5095723;28;19974;-65
2022/08/11 00:40:41;;;;;;;;;;;23.80;49.20;;;;;;5102426;28;19931;-64
2022/08/11 00:43:13;;;;;;;;;;;23.80;49.10;;;;;;5094855;28;19924;-65
2022/08/11 00:45:40;;;;;;;;;;;23.70;49.10;;;;;;5102746;28;19955;-65
2022/08/11 00:48:07;;;;;;;;;;;23.70;49.00;;;;;;5085580;28;20438;-65
2022/08/11 00:50:37;;;;;;;;;;;23.80;49.20;;;;;;5114285;27;20357;-65
2022/08/11 00:53:12;;;;;;;;;;;23.80;49.20;;;;;;5083519;28;19920;-65
2022/08/11 00:55:54;;;;;;;;;;;23.70;49.10;;;;;;5100722;28;20040;-65
2022/08/11 00:58:32;;;;;;;;;;;23.70;49.10;;;;;;5079912;28;19966;-64
2022/08/11 01:01:05;;;;;;;;;;;23.70;49.10;;;;;;5100646;28;19969;-65
2022/08/11 01:03:34;;;;;;;;;;;23.70;49.10;;;;;;5100839;28;20354;-65
2022/08/11 01:06:12;;;;;;;;;;;23.80;49.20;;;;;;5105375;28;20403;-65
2022/08/11 01:08:46;;;;;;;;;;;23.70;49.10;;;;;;5115976;27;20438;-65
2022/08/11 01:11:37;;;;;;;;;;;23.70;49.10;;;;;;5099670;28;20381;-64
2022/08/11 01:14:14;;;;;;;;;;;23.70;49.10;;;;;;5111978;27;19955;-64
2022/08/11 01:16:58;;;;;;;;;;;23.70;49.10;;;;;;5101530;28;19920;-64
2022/08/11 01:19:40;;;;;;;;;;;23.70;49.10;;;;;;5109635;27;20026;-65
2022/08/11 01:22:16;;;;;;;;;;;23.70;49.10;;;;;;5079483;28;19920;-65
2022/08/11 01:24:47;;;;;;;;;;;23.70;49.20;;;;;;5083592;28;20023;-64
2022/08/11 01:27:19;;;;;;;;;;;23.70;49.20;;;;;;5080665;28;20079;-65
2022/08/11 01:29:58;;;;;;;;;;;23.70;49.20;;;;;;5080396;28;20001;-63
2022/08/11 01:32:36;;;;;;;;;;;23.70;49.20;;;;;;5099076;28;19920;-65
2022/08/11 01:35:19;;;;;;;;;;;23.70;49.20;;;;;;5097080;28;19932;-64
2022/08/11 01:38:04;;;;;;;;;;;23.70;49.20;;;;;;5098560;28;19928;-64
2022/08/11 01:40:39;;;;;;;;;;;23.80;49.30;;;;;;5098951;28;20427;-65
2022/08/11 01:46:11;;;;;;;;;;;23.70;49.30;;;;;;5115480;27;19911;-65
2022/08/11 01:48:40;;;;;;;;;;;23.70;49.20;;;;;;5098381;28;19920;-64
2022/08/11 01:51:22;;;;;;;;;;;23.70;49.30;;;;;;5094458;28;19951;-65
2022/08/11 01:53:54;;;;;;;;;;;23.70;49.30;;;;;;5090550;28;20361;-64
2022/08/11 01:56:25;;;;;;;;;;;23.70;49.30;;;;;;5101924;28;19926;-65
2022/08/11 01:58:56;;;;;;;;;;;23.70;49.30;;;;;;5081470;28;20309;-64
2022/08/11 02:01:28;;;;;;;;;;;23.70;49.30;;;;;;5101062;28;19938;-65
2022/08/11 02:03:55;;;;;;;;;;;23.70;49.30;;;;;;5115974;27;19920;-64
2022/08/11 02:09:12;;;;;;;;;;;23.70;49.30;;;;;;5097380;28;20353;-65
2022/08/11 02:11:38;;;;;;;;;;;23.70;49.30;;;;;;5082635;28;19943;-65
2022/08/11 02:14:12;;;;;;;;;;;23.70;49.40;;;;;;5097594;28;19932;-64
2022/08/11 02:16:56;;;;;;;;;;;23.70;49.40;;;;;;5102019;28;20019;-64
2022/08/11 02:25:02;;;;;;;;;;;23.70;49.40;;;;;;5114205;27;19930;-64
2022/08/11 02:27:33;;;;;;;;;;;23.70;49.50;;;;;;5099160;28;19967;-65
2022/08/11 02:30:06;;;;;;;;;;;23.70;49.50;;;;;;5078656;28;19990;-64
2022/08/11 02:35:19;;;;;;;;;;;23.60;49.40;;;;;;5093066;28;19986;-64
2022/08/11 02:37:52;;;;;;;;;;;23.60;49.40;;;;;;5086811;28;20335;-64
2022/08/11 02:40:23;;;;;;;;;;;23.60;49.40;;;;;;5081049;28;20011;-64
2022/08/11 02:42:55;;;;;;;;;;;23.60;49.40;;;;;;5095582;28;19924;-64
2022/08/11 02:45:40;;;;;;;;;;;23.60;49.40;;;;;;5080084;28;20323;-64
2022/08/11 02:50:56;;;;;;;;;;;23.70;49.60;;;;;;5101589;28;20049;-65
2022/08/11 02:53:28;;;;;;;;;;;23.60;49.50;;;;;;5099493;28;19963;-64
2022/08/11 02:55:57;;;;;;;;;;;23.60;49.50;;;;;;5112475;27;19927;-64
2022/08/11 02:58:28;;;;;;;;;;;23.60;49.50;;;;;;5113888;27;19932;-65
2022/08/11 03:00:56;;;;;;;;;;;23.60;49.50;;;;;;5095879;28;19976;-65
2022/08/11 03:03:24;;;;;;;;;;;23.60;49.50;;;;;;5101086;28;20427;-65
2022/08/11 03:05:53;;;;;;;;;;;23.60;49.50;;;;;;5097231;28;19920;-65
2022/08/11 03:08:38;;;;;;;;;;;23.60;49.50;;;;;;5079443;28;19959;-65
2022/08/11 03:16:47;;;;;;;;;;;23.60;49.50;;;;;;5094715;28;20361;-64
2022/08/11 03:19:16;;;;;;;;;;;23.60;49.50;;;;;;5114619;27;19924;-65
2022/08/11 03:21:46;;;;;;;;;;;23.60;49.50;;;;;;5098224;28;19959;-64
2022/08/11 03:24:14;;;;;;;;;;;23.60;49.50;;;;;;5076130;28;19972;-65
2022/08/11 03:26:43;;;;;;;;;;;23.60;49.50;;;;;;5096186;28;20260;-64
2022/08/11 03:29:11;;;;;;;;;;;23.60;49.50;;;;;;5078457;28;19969;-65
2022/08/11 03:31:41;;;;;;;;;;;23.60;49.50;;;;;;5077840;28;19974;-64
2022/08/11 03:34:07;;;;;;;;;;;23.60;49.60;;;;;;5100525;28;19919;-65
2022/08/11 03:36:57;;;;;;;;;;;23.60;49.60;;;;;;5099107;28;19958;-65
2022/08/11 03:39:27;;;;;;;;;;;23.60;49.60;;;;;;5114469;28;19966;-65
2022/08/11 03:42:00;;;;;;;;;;;23.60;49.60;;;;;;5098991;28;19920;-65
2022/08/11 03:44:34;;;;;;;;;;;23.60;49.60;;;;;;5080395;28;19947;-65
2022/08/11 03:47:34;;;;;;;;;;;23.60;49.60;;;;;;5075881;28;19920;-64
2022/08/11 03:50:03;;;;;;;;;;;23.60;49.70;;;;;;5053179;28;20384;-65
2022/08/11 03:52:34;;;;;;;;;;;23.60;49.70;;;;;;5035912;28;20459;-68
2022/08/11 03:55:04;;;;;;;;;;;23.60;49.70;;;;;;5053629;28;19920;-64
2022/08/11 03:57:48;;;;;;;;;;;23.60;49.70;;;;;;5080695;28;19927;-65
2022/08/11 04:00:19;;;;;;;;;;;23.60;49.80;;;;;;5076250;28;19993;-64
2022/08/11 04:02:54;;;;;;;;;;;23.60;49.80;;;;;;5077327;28;19923;-64
2022/08/11 04:05:35;;;;;;;;;;;23.60;49.70;;;;;;5079915;28;19962;-64
2022/08/11 04:08:15;;;;;;;;;;;23.60;49.70;;;;;;5068866;28;19959;-65
2022/08/11 04:10:54;;;;;;;;;;;23.60;49.70;;;;;;5103843;28;19920;-64
2022/08/11 04:13:44;;;;;;;;;;;23.60;49.70;;;;;;5102977;28;20273;-64
2022/08/11 04:16:31;;;;;;;;;;;23.60;49.70;;;;;;5077821;28;19958;-64
2022/08/11 04:19:19;;;;;;;;;;;23.60;49.70;;;;;;5099002;28;20033;-64
2022/08/11 04:22:01;;;;;;;;;;;23.60;49.70;;;;;;5098894;28;19924;-65
2022/08/11 04:24:35;;;;;;;;;;;23.60;49.70;;;;;;5100600;28;19928;-64
2022/08/11 04:27:12;;;;;;;;;;;23.50;49.60;;;;;;5083560;28;19926;-65
2022/08/11 04:29:42;;;;;;;;;;;23.50;49.70;;;;;;5095507;28;19924;-65
2022/08/11 04:32:11;;;;;;;;;;;23.60;49.70;;;;;;5084664;28;20335;-65
2022/08/11 04:34:42;;;;;;;;;;;23.60;49.70;;;;;;5098206;28;19927;-64
2022/08/11 04:37:34;;;;;;;;;;;23.60;49.70;;;;;;5098054;28;19928;-65
2022/08/11 04:40:19;;;;;;;;;;;23.60;49.70;;;;;;5097729;28;19920;-65
2022/08/11 04:45:49;;;;;;;;;;;23.60;49.70;;;;;;5116253;27;19930;-65
2022/08/11 05:02:58;;;;;;;;;;;23.60;49.80;;;;;;5098675;28;20019;-65
2022/08/11 05:05:31;;;;;;;;;;;23.50;49.80;;;;;;5032791;28;19920;-65
2022/08/11 05:08:13;;;;;;;;;;;23.60;49.80;;;;;;5038643;28;20003;-65
2022/08/11 05:10:48;;;;;;;;;;;23.50;50.30;;;;;;5078456;28;19978;-65
2022/08/11 05:35:31;;;;;;;;;;;23.60;49.80;;;;;;5106397;27;19920;-65
2022/08/11 05:57:18;;;;;;;;;;;23.60;50.00;;;;;;5094327;28;20020;-66
2022/08/11 05:59:45;;;;;;;;;;;23.60;50.00;;;;;;5069592;28;19920;-64
2022/08/11 06:02:12;;;;;;;;;;;23.60;50.10;;;;;;5092752;27;19931;-64
2022/08/11 06:04:38;;;;;;;;;;;23.60;50.10;;;;;;5086750;28;19952;-65
2022/08/11 06:07:08;;;;;;;;;;;23.60;50.10;;;;;;5076253;28;19927;-65
2022/08/11 06:09:37;;;;;;;;;;;23.60;50.10;;;;;;5079472;28;19951;-65
2022/08/11 06:12:04;;;;;;;;;;;23.60;50.20;;;;;;5084888;28;19964;-64
2022/08/11 06:14:31;;;;;;;;;;;23.60;50.20;;;;;;5093679;28;19927;-64
2022/08/11 06:16:59;;;;;;;;;;;23.60;50.20;;;;;;5089774;28;19970;-65
2022/08/11 06:19:35;;;;;;;;;;;23.60;50.20;;;;;;5087431;28;19920;-65
2022/08/11 06:22:03;;;;;;;;;;;23.60;50.30;;;;;;5089197;28;19932;-65
2022/08/11 06:24:31;;;;;;;;;;;23.50;50.20;;;;;;5088621;28;19977;-65
2022/08/11 06:26:59;;;;;;;;;;;23.60;50.30;;;;;;5078158;28;19926;-65
2022/08/11 06:29:26;;;;;;;;;;;23.50;50.10;;;;;;5102959;27;19924;-64
2022/08/11 06:31:53;;;;;;;;;;;23.60;50.20;;;;;;5097510;28;20015;-64
2022/08/11 06:34:38;;;;;;;;;;;23.50;50.10;;;;;;5071347;28;19963;-64
2022/08/11 06:37:11;;;;;;;;;;;23.60;50.20;;;;;;5050262;28;19920;-64
2022/08/11 06:39:39;;;;;;;;;;;23.60;50.20;;;;;;5099609;27;19932;-64
2022/08/11 06:42:09;;;;;;;;;;;23.60;50.20;;;;;;5074903;28;19920;-64
2022/08/11 06:44:39;;;;;;;;;;;23.60;50.20;;;;;;5093712;28;19928;-64
2022/08/11 06:47:07;;;;;;;;;;;23.50;50.00;;;;;;5087914;28;19978;-64
2022/08/11 06:52:19;;;;;;;;;;;23.60;50.10;;;;;;5097957;28;20007;-64
2022/08/11 06:54:53;;;;;;;;;;;23.60;50.10;;;;;;5089197;28;19920;-64
2022/08/11 07:00:27;;;;;;;;;;;23.60;50.10;;;;;;5087322;28;20259;-64
2022/08/11 07:02:55;;;;;;;;;;;23.60;50.10;;;;;;5075930;28;20297;-64
2022/08/11 07:05:22;;;;;;;;;;;23.60;50.10;;;;;;5076870;28;19928;-64
2022/08/11 07:16:18;;;;;;;;;;;23.60;50.00;;;;;;5099601;27;19920;-65
2022/08/11 07:29:44;;;;;;;;;;;23.50;49.90;;;;;;5091046;28;19947;-64
2022/08/11 07:32:14;;;;;;;;;;;23.60;49.90;;;;;;5071076;28;19943;-65
2022/08/11 07:34:40;;;;;;;;;;;23.60;49.90;;;;;;5090642;28;20399;-64
2022/08/11 07:37:09;;;;;;;;;;;23.60;49.80;;;;;;5084756;28;19920;-64
2022/08/11 07:39:35;;;;;;;;;;;23.60;49.90;;;;;;5091018;28;20001;-64
2022/08/11 07:42:04;;;;;;;;;;;23.50;49.80;;;;;;5103315;28;20014;-64
2022/08/11 07:48:10;;;;;;;;;;;23.50;49.80;;;;;;5087011;28;19920;-64
2022/08/11 07:52:48;;;;;;;;;;;23.60;49.80;;;;;;5106531;28;19977;-64
2022/08/11 07:55:16;;;;;;;;;;;23.60;49.90;;;;;;5073006;28;19974;-64
2022/08/11 08:19:43;;;;;;;;;;;23.60;49.90;;;;;;5104654;28;19928;-64
2022/08/11 08:22:10;;;;;;;;;;;23.60;49.90;;;;;;5088940;28;19928;-64
2022/08/11 08:24:37;;;;;;;;;;;23.60;50.00;;;;;;5093398;28;20365;-64
2022/08/11 08:27:03;;;;;;;;;;;23.60;50.00;;;;;;5074516;28;19943;-65
2022/08/11 08:32:29;;;;;;;;;;;23.60;50.00;;;;;;5024819;28;20040;-64
2022/08/11 08:34:57;;;;;;;;;;;23.60;50.00;;;;;;5062239;28;19920;-64
2022/08/11 08:37:25;;;;;;;;;;;23.60;50.00;;;;;;5088452;28;19931;-64
2022/08/11 08:39:52;;;;;;;;;;;23.60;50.10;;;;;;5083355;28;20357;-65
2022/08/11 08:42:21;;;;;;;;;;;23.60;50.10;;;;;;5084957;28;20014;-64
2022/08/11 08:44:50;;;;;;;;;;;23.60;50.10;;;;;;5088747;28;20320;-64
2022/08/11 08:47:18;;;;;;;;;;;23.60;50.00;;;;;;5086333;28;20339;-64
2022/08/11 08:49:48;;;;;;;;;;;23.60;50.00;;;;;;5093452;28;19920;-64
2022/08/11 08:52:16;;;;;;;;;;;23.60;50.60;;;;;;5087188;28;19920;-64
2022/08/11 08:54:43;;;;;;;;;;;23.60;50.10;;;;;;5077096;28;19920;-64
2022/08/11 08:57:10;;;;;;;;;;;23.60;50.00;;;;;;5103094;28;19920;-64
2022/08/11 08:59:39;;;;;;;;;;;23.70;50.10;;;;;;5093403;28;19920;-64
2022/08/11 09:02:06;;;;;;;;;;;23.60;49.90;;;;;;5093561;28;19919;-65
2022/08/11 09:04:32;;;;;;;;;;;23.60;49.90;;;;;;5103549;28;19920;-64
2022/08/11 09:07:00;;;;;;;;;;;23.60;49.80;;;;;;5092387;28;19924;-65
2022/08/11 09:09:28;;;;;;;;;;;23.70;49.90;;;;;;5092692;28;19950;-65
2022/08/11 09:11:54;;;;;;;;;;;23.70;49.90;;;;;;5058332;28;19924;-65
2022/08/11 09:14:22;;;;;;;;;;;23.70;49.90;;;;;;5091385;28;20365;-64
2022/08/11 09:16:49;;;;;;;;;;;23.70;49.90;;;;;;5091722;28;19924;-65
2022/08/11 09:19:17;;;;;;;;;;;23.70;49.90;;;;;;5081556;28;20005;-65
2022/08/11 09:21:44;;;;;;;;;;;23.70;49.80;;;;;;5073974;28;19920;-64
2022/08/11 09:27:02;;;;;;;;;;;23.70;49.80;;;;;;5090752;28;19924;-64
2022/08/11 09:29:29;;;;;;;;;;;23.70;49.80;;;;;;5118500;27;19955;-64
2022/08/11 09:31:56;;;;;;;;;;;23.70;49.80;;;;;;5077533;28;19920;-64
2022/08/11 09:34:23;;;;;;;;;;;23.70;49.80;;;;;;5085792;28;19920;-65
2022/08/11 09:42:22;;;;;;;;;;;23.70;49.70;;;;;;5093859;28;19976;-64
2022/08/11 09:44:47;;;;;;;;;;;23.70;49.60;;;;;;5099709;28;19927;-65
2022/08/11 09:47:18;;;;;;;;;;;23.70;49.60;;;;;;5075630;28;20014;-64
2022/08/11 09:49:45;;;;;;;;;;;23.70;49.60;;;;;;5087575;28;19936;-64
2022/08/11 09:52:12;;;;;;;;;;;23.70;49.60;;;;;;5090921;28;19978;-65
2022/08/11 09:54:39;;;;;;;;;;;23.70;49.60;;;;;;5088393;28;20007;-65
2022/08/11 10:00:04;;;;;;;;;;;23.70;49.60;;;;;;5070291;28;19920;-64
2022/08/11 10:02:30;;;;;;;;;;;23.80;49.60;;;;;;5080408;28;20019;-65
2022/08/11 10:07:00;;;;;;;;;;;23.70;49.50;;;;;;5101995;28;19973;-64
2022/08/11 10:07:49;;;;;;;;;;;23.70;49.50;;;;;;5091463;28;19974;-65
2022/08/11 10:10:16;;;;;;;;;;;23.80;49.50;;;;;;5079392;28;19965;-65
2022/08/11 10:12:46;;;;;;;;;;;23.80;49.50;;;;;;5101612;28;20030;-65
2022/08/11 10:15:33;;;;;;;;;;;23.80;49.50;;;;;;5085291;28;19943;-65
2022/08/11 10:20:49;;;;;;;;;;;23.80;49.40;;;;;;5117697;27;20139;-64
2022/08/11 10:28:44;;;;;;;;;;;23.80;49.40;;;;;;5080120;28;19927;-64
2022/08/11 10:34:03;;;;;;;;;;;23.80;49.30;;;;;;5103746;28;19927;-64
2022/08/11 10:36:30;;;;;;;;;;;23.80;49.30;;;;;;5089844;28;19928;-64
2022/08/11 10:38:56;;;;;;;;;;;23.80;49.30;;;;;;5088947;28;19924;-64
2022/08/11 10:44:08;;;;;;;;;;;23.80;49.30;;;;;;5075889;28;19967;-64
2022/08/11 10:49:20;;;;;;;;;;;23.80;49.30;;;;;;5114216;27;19981;-65
2022/08/11 11:00:00;;;;;;;;;;;23.80;49.10;;;;;;5087334;28;20416;-64
2022/08/11 11:02:28;;;;;;;;;;;23.80;49.10;;;;;;5072395;28;19924;-65
2022/08/11 11:04:59;;;;;;;;;;;23.80;49.10;;;;;;5093417;28;19920;-64
2022/08/11 11:07:27;;;;;;;;;;;23.80;49.00;;;;;;5080919;28;19920;-64
2022/08/11 11:09:55;;;;;;;;;;;23.80;49.00;;;;;;5077224;28;19927;-64
2022/08/11 11:17:55;;;;;;;;;;;23.80;48.80;;;;;;5087383;28;19920;-64
2022/08/11 11:20:23;;;;;;;;;;;23.80;48.70;;;;;;5081636;28;19939;-64
2022/08/11 11:22:51;;;;;;;;;;;23.80;48.70;;;;;;5105676;28;19931;-64
2022/08/11 11:25:20;;;;;;;;;;;23.90;48.80;;;;;;5077136;28;19925;-64
2022/08/11 11:27:50;;;;;;;;;;;23.90;48.80;;;;;;5077140;28;19928;-65
2022/08/11 11:30:17;;;;;;;;;;;23.80;48.70;;;;;;5058636;28;19924;-65
2022/08/11 11:32:44;;;;;;;;;;;23.80;48.70;;;;;;5099526;28;19920;-64
2022/08/11 11:35:16;;;;;;;;;;;23.80;48.70;;;;;;5109242;28;20007;-64
2022/08/11 11:37:44;;;;;;;;;;;23.80;48.70;;;;;;5091540;28;20366;-65
2022/08/11 11:40:12;;;;;;;;;;;23.90;48.80;;;;;;5089447;28;19920;-65
2022/08/11 11:42:39;;;;;;;;;;;23.80;48.70;;;;;;5089542;28;19928;-64
2022/08/11 11:45:06;;;;;;;;;;;23.80;48.70;;;;;;5095635;28;19927;-65
2022/08/11 11:47:34;;;;;;;;;;;23.90;49.20;;;;;;5088713;28;20369;-65
2022/08/11 11:50:01;;;;;;;;;;;23.90;48.70;;;;;;5086826;28;19931;-65
2022/08/11 11:52:29;;;;;;;;;;;23.90;48.70;;;;;;5081266;28;19924;-64
2022/08/11 11:54:56;;;;;;;;;;;23.90;48.60;;;;;;5080883;28;19919;-65
2022/08/11 12:02:51;;;;;;;;;;;23.90;48.60;;;;;;5064709;28;20113;-64
2022/08/11 12:05:18;;;;;;;;;;;23.90;48.60;;;;;;5079700;28;19927;-65
2022/08/11 12:10:30;;;;;;;;;;;23.90;48.40;;;;;;5089594;28;19974;-65
2022/08/11 12:15:41;;;;;;;;;;;23.90;48.30;;;;;;5116820;28;19928;-64
2022/08/11 12:18:08;;;;;;;;;;;23.90;48.20;;;;;;5069090;28;19933;-65
2022/08/11 12:20:34;;;;;;;;;;;23.90;48.10;;;;;;5079354;28;20421;-64
2022/08/11 12:28:31;;;;;;;;;;;23.90;48.00;;;;;;5106211;28;19931;-64
2022/08/11 12:30:58;;;;;;;;;;;23.90;47.90;;;;;;5081121;28;20025;-64
2022/08/11 12:33:24;;;;;;;;;;;23.90;47.80;;;;;;5094218;28;20424;-64
2022/08/11 12:35:52;;;;;;;;;;;23.90;47.80;;;;;;5078730;28;19970;-65
2022/08/11 12:38:20;;;;;;;;;;;23.90;47.70;;;;;;5090002;28;19920;-64
2022/08/11 12:46:17;;;;;;;;;;;23.90;47.70;;;;;;5104734;28;20266;-64
2022/08/11 12:54:15;;;;;;;;;;;23.90;47.20;;;;;;5094198;28;19920;-64
2022/08/11 13:04:58;;;;;;;;;;;23.90;47.30;;;;;;5109229;28;19928;-64
2022/08/11 13:07:26;;;;;;;;;;;23.90;47.20;;;;;;5084493;28;19925;-64
2022/08/11 13:09:55;;;;;;;;;;;23.90;47.30;;;;;;5108659;28;20312;-63
2022/08/11 13:15:07;;;;;;;;;;;23.90;47.20;;;;;;5087417;28;19920;-66
2022/08/11 13:17:34;;;;;;;;;;;23.90;47.20;;;;;;5073505;28;20113;-63
2022/08/11 13:20:01;;;;;;;;;;;23.90;47.20;;;;;;5089351;28;19928;-64
2022/08/11 13:22:28;;;;;;;;;;;23.90;47.10;;;;;;5087049;28;20260;-64
2022/08/11 13:24:56;;;;;;;;;;;23.90;47.10;;;;;;5101675;27;19956;-64
2022/08/11 13:27:23;;;;;;;;;;;23.90;47.10;;;;;;5078680;28;20011;-64
2022/08/11 13:29:52;;;;;;;;;;;23.90;47.10;;;;;;5092693;28;19943;-63
2022/08/11 13:32:20;;;;;;;;;;;24.00;47.10;;;;;;5084648;28;20297;-64
2022/08/11 13:34:46;;;;;;;;;;;23.90;47.10;;;;;;5089086;28;20313;-63
2022/08/11 13:37:14;;;;;;;;;;;24.00;47.20;;;;;;5070025;28;20404;-64
2022/08/11 13:39:43;;;;;;;;;;;24.00;47.00;;;;;;5089347;28;19982;-64
2022/08/11 13:42:11;;;;;;;;;;;23.90;47.00;;;;;;5095672;28;19919;-64
2022/08/11 13:44:37;;;;;;;;;;;24.00;47.00;;;;;;5089891;28;19920;-64
2022/08/11 13:47:04;;;;;;;;;;;24.00;47.00;;;;;;5092552;28;19965;-64
2022/08/11 13:49:31;;;;;;;;;;;24.00;46.90;;;;;;5075714;28;19924;-64
2022/08/11 13:51:58;;;;;;;;;;;24.00;46.90;;;;;;5095072;28;20307;-64
2022/08/11 13:54:25;;;;;;;;;;;24.00;46.90;;;;;;5086337;28;19974;-64
2022/08/11 13:56:52;;;;;;;;;;;24.00;46.90;;;;;;5092763;28;19924;-64
2022/08/11 13:59:21;;;;;;;;;;;24.00;46.90;;;;;;5092795;28;19921;-64
2022/08/11 14:01:48;;;;;;;;;;;24.00;47.10;;;;;;5109900;28;19928;-64
2022/08/11 14:04:16;;;;;;;;;;;24.00;46.90;;;;;;5104492;28;19924;-64
2022/08/11 14:06:44;;;;;;;;;;;24.00;46.90;;;;;;5090385;28;19965;-64
2022/08/11 14:09:11;;;;;;;;;;;24.00;46.80;;;;;;5072276;28;19924;-64
2022/08/11 14:14:25;;;;;;;;;;;24.00;46.80;;;;;;5098500;28;19924;-64
2022/08/11 14:16:52;;;;;;;;;;;24.00;46.80;;;;;;5100872;28;19963;-64
2022/08/11 14:19:19;;;;;;;;;;;24.00;46.70;;;;;;5091702;28;19927;-64
2022/08/11 14:24:31;;;;;;;;;;;24.00;46.70;;;;;;5107511;28;20257;-64
2022/08/11 14:26:57;;;;;;;;;;;24.00;46.70;;;;;;5091516;28;19924;-64
2022/08/11 14:29:27;;;;;;;;;;;24.00;46.70;;;;;;5107310;28;20285;-65
2022/08/11 14:31:54;;;;;;;;;;;24.00;46.70;;;;;;5089233;28;19927;-64
2022/08/11 14:34:22;;;;;;;;;;;24.00;46.70;;;;;;5089099;28;19974;-64
2022/08/11 14:36:51;;;;;;;;;;;24.00;46.70;;;;;;5067841;28;19936;-64
2022/08/11 14:39:21;;;;;;;;;;;24.00;46.60;;;;;;5097550;28;19927;-64
2022/08/11 14:47:19;;;;;;;;;;;24.00;46.50;;;;;;5098137;28;19927;-64
2022/08/11 14:49:46;;;;;;;;;;;24.00;46.40;;;;;;5089333;28;19951;-64
2022/08/11 14:52:14;;;;;;;;;;;24.00;46.30;;;;;;5091208;28;19935;-64
2022/08/11 14:57:27;;;;;;;;;;;24.00;46.30;;;;;;5107515;28;19923;-67
2022/08/11 14:59:55;;;;;;;;;;;24.00;46.20;;;;;;5091585;28;19927;-64
2022/08/11 15:05:06;;;;;;;;;;;24.00;46.20;;;;;;5120224;27;19926;-64
2022/08/11 15:07:33;;;;;;;;;;;24.00;46.80;;;;;;5088050;28;20002;-65
2022/08/11 15:10:01;;;;;;;;;;;24.00;46.20;;;;;;5110065;28;19920;-65
2022/08/11 15:12:27;;;;;;;;;;;24.00;46.20;;;;;;5094201;28;19921;-65
2022/08/11 15:17:40;;;;;;;;;;;24.00;45.90;;;;;;5091481;28;19931;-65
2022/08/11 15:25:37;;;;;;;;;;;24.00;45.80;;;;;;5070612;28;19921;-64
2022/08/11 15:39:04;;;;;;;;;;;24.10;45.70;;;;;;5089210;28;19995;-64
2022/08/11 15:47:02;;;;;;;;;;;24.10;45.80;;;;;;5110283;28;19924;-64
2022/08/11 15:49:29;;;;;;;;;;;24.10;45.80;;;;;;5058919;28;19921;-64
2022/08/11 15:51:58;;;;;;;;;;;24.00;45.70;;;;;;5065009;28;20369;-64
2022/08/11 15:54:25;;;;;;;;;;;24.10;45.70;;;;;;5102837;28;20450;-64
2022/08/11 15:56:53;;;;;;;;;;;24.10;45.80;;;;;;5093825;28;19974;-64
2022/08/11 16:04:51;;;;;;;;;;;24.10;45.70;;;;;;5091566;28;20383;-65
2022/08/11 16:07:24;;;;;;;;;;;24.10;45.70;;;;;;5092885;28;20340;-64
2022/08/11 16:09:52;;;;;;;;;;;24.10;45.70;;;;;;5098565;27;19926;-64
2022/08/11 16:12:19;;;;;;;;;;;24.10;45.70;;;;;;5103302;28;19924;-64
2022/08/11 16:17:33;;;;;;;;;;;24.10;45.70;;;;;;5080847;28;20020;-64
2022/08/11 16:19:59;;;;;;;;;;;24.10;45.80;;;;;;5093303;28;19920;-64
2022/08/11 16:22:34;;;;;;;;;;;24.10;45.80;;;;;;5082616;28;20294;-64
2022/08/11 16:25:01;;;;;;;;;;;24.10;45.80;;;;;;5090176;28;19928;-64
2022/08/11 16:27:28;;;;;;;;;;;24.10;45.80;;;;;;5099763;28;19920;-64
2022/08/11 16:29:54;;;;;;;;;;;24.10;45.80;;;;;;5076074;28;19973;-64
2022/08/11 16:32:22;;;;;;;;;;;24.10;45.90;;;;;;5088465;28;19986;-64
2022/08/11 16:40:21;;;;;;;;;;;24.10;45.90;;;;;;5086619;28;19920;-64
2022/08/11 16:48:16;;;;;;;;;;;24.10;45.90;;;;;;5073448;28;19964;-65
2022/08/11 16:50:44;;;;;;;;;;;24.10;45.90;;;;;;5095265;28;19931;-65
2022/08/11 16:53:11;;;;;;;;;;;24.10;46.00;;;;;;5102125;28;19924;-65
2022/08/11 16:55:39;;;;;;;;;;;24.10;46.00;;;;;;5116869;28;19921;-64
2022/08/11 17:00:52;;;;;;;;;;;24.10;46.00;;;;;;5100968;28;19973;-65
2022/08/11 17:14:24;;;;;;;;;;;24.10;46.10;;;;;;5094908;28;19924;-66
2022/08/11 17:16:51;;;;;;;;;;;24.20;46.10;;;;;;5097399;28;19920;-65
2022/08/11 17:19:18;;;;;;;;;;;24.20;46.20;;;;;;5116528;28;19931;-66
2022/08/11 17:24:30;;;;;;;;;;;24.20;46.20;;;;;;5063269;28;19979;-62
2022/08/11 17:26:58;;;;;;;;;;;24.20;46.20;;;;;;5104538;28;19997;-65
2022/08/11 17:29:27;;;;;;;;;;;24.20;46.20;;;;;;5088689;28;20308;-64
2022/08/11 17:37:25;;;;;;;;;;;24.20;46.20;;;;;;5105668;28;20010;-65
2022/08/11 17:39:52;;;;;;;;;;;24.20;46.20;;;;;;5077828;28;19994;-65
2022/08/11 17:50:32;;;;;;;;;;;24.20;46.30;;;;;;5110888;27;19927;-65
2022/08/11 18:01:15;;;;;;;;;;;24.20;46.30;;;;;;5096981;28;19932;-65
2022/08/11 18:03:41;;;;;;;;;;;24.20;46.40;;;;;;5112981;27;19939;-66
2022/08/11 18:06:09;;;;;;;;;;;24.20;46.30;;;;;;5096238;28;19955;-66
